sensor_id;sensor_type;location;lat;lon;timestamp;pressure;altitude;pressure_sealevel;temperature;humidity
37170;BME280;23062;13.952;100.608;2023-03-14T13:34:10;1009.84;;;31.27;48.81
37170;BME280;23062;13.952;100.608;2023-03-14T13:38:37;1009.89;;;31.27;48.70
37170;BME280;23062;13.952;100.608;2023-03-14T13:47:39;1009.98;;;31.22;49.50
37170;BME280;23062;13.952;100.608;2023-03-14T13:52:21;1009.98;;;31.20;50.10
37170;BME280;23062;13.952;100.608;2023-03-14T13:56:34;1010.05;;;31.20;50.29
37170;BME280;23062;13.952;100.608;2023-03-14T14:01:13;1010.06;;;31.18;50.02
37170;BME280;23062;13.952;100.608;2023-03-14T14:05:38;1010.09;;;31.19;49.86
37170;BME280;23062;13.952;100.608;2023-03-14T14:10:05;1010.19;;;31.18;50.07
37170;BME280;23062;13.952;100.608;2023-03-14T14:14:35;1010.23;;;31.17;50.18
37170;BME280;23062;13.952;100.608;2023-03-14T14:19:01;1010.26;;;31.18;50.57
37170;BME280;23062;13.952;100.608;2023-03-14T14:23:27;1010.33;;;31.16;50.43
37170;BME280;23062;13.952;100.608;2023-03-14T14:27:54;1010.34;;;31.13;50.34
37170;BME280;23062;13.952;100.608;2023-03-14T14:32:22;1010.39;;;31.13;49.86
37170;BME280;23062;13.952;100.608;2023-03-14T14:36:49;1010.34;;;31.12;50.11
37170;BME280;23062;13.952;100.608;2023-03-14T14:41:14;1010.33;;;31.12;50.23
37170;BME280;23062;13.952;100.608;2023-03-14T14:45:47;1010.35;;;31.11;50.68
37170;BME280;23062;13.952;100.608;2023-03-14T14:55:19;1010.40;;;31.11;50.89
37170;BME280;23062;13.952;100.608;2023-03-14T14:59:47;1010.45;;;31.10;51.03
37170;BME280;23062;13.952;100.608;2023-03-14T15:04:12;1010.50;;;31.10;51.22
37170;BME280;23062;13.952;100.608;2023-03-14T15:08:40;1010.59;;;31.09;51.64
37170;BME280;23062;13.952;100.608;2023-03-14T15:13:05;1010.61;;;31.08;51.60
37170;BME280;23062;13.952;100.608;2023-03-14T15:17:30;1010.60;;;31.07;51.64
37170;BME280;23062;13.952;100.608;2023-03-14T15:21:55;1010.56;;;31.06;51.94
37170;BME280;23062;13.952;100.608;2023-03-14T15:26:25;1010.53;;;31.05;51.91
37170;BME280;23062;13.952;100.608;2023-03-14T15:30:53;1010.64;;;31.05;51.99
37170;BME280;23062;13.952;100.608;2023-03-14T15:35:19;1010.73;;;31.04;52.12
37170;BME280;23062;13.952;100.608;2023-03-14T15:39:45;1010.72;;;31.03;52.19
37170;BME280;23062;13.952;100.608;2023-03-14T15:44:10;1010.65;;;31.03;52.29
37170;BME280;23062;13.952;100.608;2023-03-14T15:48:35;1010.71;;;31.02;52.35
37170;BME280;23062;13.952;100.608;2023-03-14T15:53:00;1010.74;;;31.02;52.41
37170;BME280;23062;13.952;100.608;2023-03-14T15:57:25;1010.77;;;31.03;52.42
37170;BME280;23062;13.952;100.608;2023-03-14T16:01:50;1010.82;;;31.02;52.47
37170;BME280;23062;13.952;100.608;2023-03-14T16:06:15;1010.81;;;31.02;52.49
37170;BME280;23062;13.952;100.608;2023-03-14T16:10:40;1010.88;;;31.01;52.52
37170;BME280;23062;13.952;100.608;2023-03-14T16:15:06;1010.85;;;31.00;52.55
37170;BME280;23062;13.952;100.608;2023-03-14T16:19:31;1010.82;;;31.00;52.55
37170;BME280;23062;13.952;100.608;2023-03-14T16:23:55;1010.84;;;31.00;52.60
37170;BME280;23062;13.952;100.608;2023-03-14T16:28:21;1010.82;;;30.99;52.62
37170;BME280;23062;13.952;100.608;2023-03-14T16:32:46;1010.80;;;30.98;52.72
37170;BME280;23062;13.952;100.608;2023-03-14T16:37:11;1010.77;;;30.97;52.77
37170;BME280;23062;13.952;100.608;2023-03-14T16:41:36;1010.79;;;30.97;52.79
37170;BME280;23062;13.952;100.608;2023-03-14T16:46:01;1010.81;;;30.95;52.91
37170;BME280;23062;13.952;100.608;2023-03-14T16:50:32;1010.80;;;30.96;52.90
37170;BME280;23062;13.952;100.608;2023-03-14T16:54:57;1010.83;;;30.95;53.03
37170;BME280;23062;13.952;100.608;2023-03-14T16:59:25;1010.85;;;30.94;53.17
37170;BME280;23062;13.952;100.608;2023-03-14T17:03:51;1010.83;;;30.93;53.04
37170;BME280;23062;13.952;100.608;2023-03-14T17:08:18;1010.85;;;30.93;53.12
37170;BME280;23062;13.952;100.608;2023-03-14T17:12:44;1010.84;;;30.93;52.91
37170;BME280;23062;13.952;100.608;2023-03-14T17:17:09;1010.77;;;30.92;52.85
37170;BME280;23062;13.952;100.608;2023-03-14T17:21:34;1010.72;;;30.92;52.84
37170;BME280;23062;13.952;100.608;2023-03-14T17:26:00;1010.72;;;30.90;52.76
37170;BME280;23062;13.952;100.608;2023-03-14T17:30:25;1010.67;;;30.89;52.87
37170;BME280;23062;13.952;100.608;2023-03-14T17:34:51;1010.61;;;30.89;52.81
37170;BME280;23062;13.952;100.608;2023-03-14T17:39:20;1010.56;;;30.87;52.99
37170;BME280;23062;13.952;100.608;2023-03-14T17:43:45;1010.52;;;30.86;52.88
37170;BME280;23062;13.952;100.608;2023-03-14T17:48:10;1010.50;;;30.87;52.91
37170;BME280;23062;13.952;100.608;2023-03-14T17:52:35;1010.44;;;30.86;52.92
37170;BME280;23062;13.952;100.608;2023-03-14T17:57:00;1010.37;;;30.86;52.91
37170;BME280;23062;13.952;100.608;2023-03-14T18:01:26;1010.36;;;30.84;53.05
37170;BME280;23062;13.952;100.608;2023-03-14T18:05:50;1010.30;;;30.83;52.99
37170;BME280;23062;13.952;100.608;2023-03-14T18:10:15;1010.19;;;30.81;53.06
37170;BME280;23062;13.952;100.608;2023-03-14T18:14:45;1010.10;;;30.80;53.12
37170;BME280;23062;13.952;100.608;2023-03-14T18:19:15;1010.04;;;30.78;53.26
37170;BME280;23062;13.952;100.608;2023-03-14T18:23:41;1009.92;;;30.78;53.50
37170;BME280;23062;13.952;100.608;2023-03-14T18:28:09;1009.96;;;30.77;53.46
37170;BME280;23062;13.952;100.608;2023-03-14T18:32:34;1009.92;;;30.73;53.82
37170;BME280;23062;13.952;100.608;2023-03-14T18:36:59;1009.90;;;30.72;53.78
37170;BME280;23062;13.952;100.608;2023-03-14T18:41:24;1009.85;;;30.71;53.79
37170;BME280;23062;13.952;100.608;2023-03-14T18:45:49;1009.82;;;30.70;53.68
37170;BME280;23062;13.952;100.608;2023-03-14T18:50:14;1009.75;;;30.68;53.95
37170;BME280;23062;13.952;100.608;2023-03-14T18:54:39;1009.73;;;30.68;53.75
37170;BME280;23062;13.952;100.608;2023-03-14T18:59:07;1009.66;;;30.67;53.56
37170;BME280;23062;13.952;100.608;2023-03-14T19:03:40;1009.64;;;30.67;53.42
37170;BME280;23062;13.952;100.608;2023-03-14T19:08:12;1009.60;;;30.65;54.30
37170;BME280;23062;13.952;100.608;2023-03-14T19:12:37;1009.61;;;30.63;53.91
37170;BME280;23062;13.952;100.608;2023-03-14T19:17:04;1009.61;;;30.64;54.31
37170;BME280;23062;13.952;100.608;2023-03-14T19:21:35;1009.62;;;30.63;53.53
37170;BME280;23062;13.952;100.608;2023-03-14T19:26:00;1009.60;;;30.61;53.71
37170;BME280;23062;13.952;100.608;2023-03-14T19:30:31;1009.61;;;30.61;53.88
37170;BME280;23062;13.952;100.608;2023-03-14T19:34:57;1009.64;;;30.61;53.96
37170;BME280;23062;13.952;100.608;2023-03-14T19:39:24;1009.67;;;30.60;53.89
37170;BME280;23062;13.952;100.608;2023-03-14T19:43:49;1009.64;;;30.59;54.15
37170;BME280;23062;13.952;100.608;2023-03-14T19:48:14;1009.61;;;30.57;54.19
37170;BME280;23062;13.952;100.608;2023-03-14T19:52:39;1009.62;;;30.60;53.83
37170;BME280;23062;13.952;100.608;2023-03-14T19:57:08;1009.54;;;30.58;53.67
37170;BME280;23062;13.952;100.608;2023-03-14T20:01:34;1009.53;;;30.58;53.82
37170;BME280;23062;13.952;100.608;2023-03-14T20:06:07;1009.55;;;30.59;53.71
37170;BME280;23062;13.952;100.608;2023-03-14T20:10:35;1009.56;;;30.58;53.58
37170;BME280;23062;13.952;100.608;2023-03-14T20:15:00;1009.56;;;30.57;53.58
37170;BME280;23062;13.952;100.608;2023-03-14T20:19:26;1009.52;;;30.58;53.72
37170;BME280;23062;13.952;100.608;2023-03-14T20:23:53;1009.48;;;30.57;53.77
37170;BME280;23062;13.952;100.608;2023-03-14T20:28:18;1009.52;;;30.56;53.71
37170;BME280;23062;13.952;100.608;2023-03-14T20:32:43;1009.53;;;30.55;53.57
37170;BME280;23062;13.952;100.608;2023-03-14T20:37:15;1009.54;;;30.53;53.65
37170;BME280;23062;13.952;100.608;2023-03-14T20:41:40;1009.54;;;30.53;53.70
37170;BME280;23062;13.952;100.608;2023-03-14T20:46:05;1009.64;;;30.53;54.01
37170;BME280;23062;13.952;100.608;2023-03-14T20:50:30;1009.70;;;30.53;54.02
37170;BME280;23062;13.952;100.608;2023-03-14T20:54:55;1009.73;;;30.52;53.86
37170;BME280;23062;13.952;100.608;2023-03-14T20:59:27;1009.72;;;30.48;55.01
37170;BME280;23062;13.952;100.608;2023-03-14T21:03:52;1009.72;;;30.43;55.87
37170;BME280;23062;13.952;100.608;2023-03-14T21:08:22;1009.72;;;30.34;56.31
37170;BME280;23062;13.952;100.608;2023-03-14T21:12:49;1009.70;;;30.30;56.41
37170;BME280;23062;13.952;100.608;2023-03-14T21:17:15;1009.70;;;30.27;56.76
37170;BME280;23062;13.952;100.608;2023-03-14T21:21:43;1009.69;;;30.26;56.85
37170;BME280;23062;13.952;100.608;2023-03-14T21:26:11;1009.76;;;30.25;57.03
37170;BME280;23062;13.952;100.608;2023-03-14T21:30:36;1009.71;;;30.22;57.14
37170;BME280;23062;13.952;100.608;2023-03-14T21:35:00;1009.78;;;30.20;57.40
37170;BME280;23062;13.952;100.608;2023-03-14T21:39:25;1009.81;;;29.99;58.10
37170;BME280;23062;13.952;100.608;2023-03-14T21:43:50;1009.86;;;29.80;59.03
37170;BME280;23062;13.952;100.608;2023-03-14T21:48:16;1009.87;;;29.67;59.88
37170;BME280;23062;13.952;100.608;2023-03-14T21:52:42;1009.86;;;29.61;60.08
37170;BME280;23062;13.952;100.608;2023-03-14T21:57:13;1009.88;;;29.56;60.09
37170;BME280;23062;13.952;100.608;2023-03-14T22:01:39;1009.93;;;29.57;60.11
37170;BME280;23062;13.952;100.608;2023-03-14T22:06:07;1009.98;;;29.53;60.36
37170;BME280;23062;13.952;100.608;2023-03-14T22:10:32;1010.03;;;29.43;60.75
37170;BME280;23062;13.952;100.608;2023-03-14T22:14:57;1010.11;;;29.40;60.73
37170;BME280;23062;13.952;100.608;2023-03-14T22:19:22;1010.16;;;29.67;59.96
37170;BME280;23062;13.952;100.608;2023-03-14T22:23:47;1010.15;;;29.82;59.41
37170;BME280;23062;13.952;100.608;2023-03-14T22:28:16;1010.13;;;29.88;59.35
37170;BME280;23062;13.952;100.608;2023-03-14T22:32:47;1010.20;;;29.90;59.47
37170;BME280;23062;13.952;100.608;2023-03-14T22:37:12;1010.26;;;29.92;59.73
37170;BME280;23062;13.952;100.608;2023-03-14T22:41:37;1010.30;;;29.95;59.78
37170;BME280;23062;13.952;100.608;2023-03-14T22:46:04;1010.35;;;29.97;59.71
37170;BME280;23062;13.952;100.608;2023-03-14T22:50:29;1010.44;;;29.98;59.82
37170;BME280;23062;13.952;100.608;2023-03-14T22:54:57;1010.50;;;29.99;59.85
37170;BME280;23062;13.952;100.608;2023-03-14T22:59:23;1010.57;;;29.94;59.94
37170;BME280;23062;13.952;100.608;2023-03-14T23:03:48;1010.59;;;29.93;60.14
37170;BME280;23062;13.952;100.608;2023-03-14T23:08:13;1010.68;;;29.90;60.18
37170;BME280;23062;13.952;100.608;2023-03-14T23:12:38;1010.71;;;29.87;60.27
37170;BME280;23062;13.952;100.608;2023-03-14T23:17:02;1010.70;;;29.86;60.44
37170;BME280;23062;13.952;100.608;2023-03-14T23:21:30;1010.80;;;29.85;60.63
37170;BME280;23062;13.952;100.608;2023-03-14T23:25:55;1010.90;;;29.83;60.72
37170;BME280;23062;13.952;100.608;2023-03-14T23:30:24;1010.96;;;29.83;60.74
37170;BME280;23062;13.952;100.608;2023-03-14T23:34:49;1010.96;;;29.81;60.85
37170;BME280;23062;13.952;100.608;2023-03-14T23:39:14;1011.05;;;29.80;60.87
37170;BME280;23062;13.952;100.608;2023-03-14T23:43:45;1011.12;;;29.78;60.92
37170;BME280;23062;13.952;100.608;2023-03-14T23:48:10;1011.15;;;29.78;60.87
37170;BME280;23062;13.952;100.608;2023-03-14T23:52:36;1011.29;;;29.77;60.84
37170;BME280;23062;13.952;100.608;2023-03-14T23:57:08;1011.34;;;29.77;60.82
